Time;durP1;ratioP1;P1;durP2;ratioP2;P2;SDS_P1;SDS_P2;PMS_P1;PMS_P2;Temp;Humidity;BMP_temperature;BMP_pressure;BME280_temperature;BME280_humidity;BME280_pressure;Samples;Min_cycle;Max_cycle;Signal;HPM_P1;HPM_P2
2023/10/10 00:02:21;;;;;;;11.40;5.80;;;;;;;;;;5064215;28;20042;-69
2023/10/10 00:04:47;;;;;;;8.45;5.25;;;;;;;;;;5069616;28;20071;-69
2023/10/10 00:07:17;;;;;;;10.82;5.55;;;;;;;;;;5069030;28;20064;-69
2023/10/10 00:09:44;;;;;;;9.23;5.40;;;;;;;;;;5054131;28;20099;-69
2023/10/10 00:12:13;;;;;;;8.82;5.30;;;;;;;;;;5072207;28;20040;-69
2023/10/10 00:14:39;;;;;;;8.13;4.80;;;;;;;;;;5072397;28;20040;-69
2023/10/10 00:17:08;;;;;;;9.35;4.97;;;;;;;;;;5070024;28;20037;-69
2023/10/10 00:19:43;;;;;;;12.60;5.75;;;;;;;;;;5067144;28;20107;-69
2023/10/10 00:22:09;;;;;;;10.18;5.05;;;;;;;;;;5071777;28;20032;-69
2023/10/10 00:24:35;;;;;;;12.23;5.28;;;;;;;;;;5072177;28;20483;-69
2023/10/10 00:27:14;;;;;;;11.63;5.47;;;;;;;;;;5066145;28;20036;-69
2023/10/10 00:29:42;;;;;;;10.48;6.30;;;;;;;;;;5067595;28;20029;-69
2023/10/10 00:32:16;;;;;;;9.18;5.40;;;;;;;;;;5069572;28;20036;-69
2023/10/10 00:34:46;;;;;;;14.27;6.35;;;;;;;;;;5071708;28;20131;-69
2023/10/10 00:37:13;;;;;;;11.00;5.93;;;;;;;;;;5071134;28;20041;-69
2023/10/10 00:39:39;;;;;;;8.93;5.88;;;;;;;;;;5069270;28;20036;-69
2023/10/10 00:42:19;;;;;;;9.70;5.45;;;;;;;;;;5066162;28;20517;-69
2023/10/10 00:44:46;;;;;;;15.45;6.35;;;;;;;;;;5067554;28;20486;-69
2023/10/10 00:47:13;;;;;;;8.52;5.70;;;;;;;;;;5052688;28;20513;-69
2023/10/10 00:49:43;;;;;;;10.65;5.50;;;;;;;;;;5071306;28;20094;-69
2023/10/10 00:52:12;;;;;;;13.00;6.60;;;;;;;;;;5071615;28;20072;-69
2023/10/10 00:54:45;;;;;;;12.52;6.10;;;;;;;;;;5072041;28;20100;-69
2023/10/10 00:57:19;;;;;;;10.88;6.40;;;;;;;;;;5069463;28;20044;-69
2023/10/10 00:59:47;;;;;;;11.60;6.90;;;;;;;;;;5069504;28;20427;-69
2023/10/10 01:02:15;;;;;;;10.63;6.40;;;;;;;;;;5069430;28;20089;-69
2023/10/10 01:05:19;;;;;;;10.18;6.55;;;;;;;;;;5069954;28;20040;-70
2023/10/10 01:07:34;;;;;;;11.40;7.00;;;;;;;;;;5067082;28;20044;-70
2023/10/10 01:10:11;;;;;;;13.38;7.30;;;;;;;;;;5069687;28;20119;-70
2023/10/10 01:12:39;;;;;;;13.18;6.97;;;;;;;;;;5069381;28;20040;-70
2023/10/10 01:15:12;;;;;;;11.07;6.35;;;;;;;;;;5053173;28;20486;-70
2023/10/10 01:17:38;;;;;;;12.55;6.95;;;;;;;;;;5070845;28;20103;-70
2023/10/10 01:20:14;;;;;;;11.88;6.40;;;;;;;;;;5070919;28;20421;-70
2023/10/10 01:22:46;;;;;;;10.52;6.93;;;;;;;;;;5070183;28;20037;-70
2023/10/10 01:25:41;;;;;;;9.50;6.75;;;;;;;;;;5070838;28;20048;-70
2023/10/10 01:33:22;;;;;;;10.43;5.70;;;;;;;;;;5070590;28;20090;-70
2023/10/10 01:35:55;;;;;;;11.38;7.25;;;;;;;;;;5071039;28;20559;-70
2023/10/10 01:38:30;;;;;;;9.60;6.00;;;;;;;;;;5069288;28;20142;-70
2023/10/10 01:40:57;;;;;;;10.45;6.10;;;;;;;;;;5066070;28;20840;-70
2023/10/10 01:43:24;;;;;;;11.18;5.95;;;;;;;;;;5070453;28;20102;-70
2023/10/10 01:46:08;;;;;;;11.98;6.55;;;;;;;;;;5046446;28;20044;-70
2023/10/10 01:48:43;;;;;;;8.68;5.45;;;;;;;;;;5068381;28;20041;-70
2023/10/10 01:51:09;;;;;;;9.15;5.50;;;;;;;;;;5071593;28;20090;-70
2023/10/10 01:53:40;;;;;;;8.85;4.47;;;;;;;;;;5069272;28;20037;-70
2023/10/10 01:56:07;;;;;;;9.18;4.72;;;;;;;;;;5071094;28;20444;-70
2023/10/10 01:58:36;;;;;;;9.63;4.70;;;;;;;;;;5068631;28;20044;-70
2023/10/10 02:01:23;;;;;;;9.65;4.70;;;;;;;;;;5066884;28;20048;-69
2023/10/10 02:03:51;;;;;;;14.13;5.57;;;;;;;;;;5055188;28;20074;-69
2023/10/10 02:06:28;;;;;;;10.00;5.22;;;;;;;;;;5072383;28;20044;-69
2023/10/10 02:09:10;;;;;;;8.65;5.13;;;;;;;;;;5071644;28;20107;-69
2023/10/10 02:11:38;;;;;;;9.68;4.97;;;;;;;;;;5071369;28;20115;-69
2023/10/10 02:14:11;;;;;;;10.05;4.97;;;;;;;;;;5072405;28;20110;-69
2023/10/10 02:16:40;;;;;;;9.07;4.72;;;;;;;;;;5054922;28;20118;-70
2023/10/10 02:19:15;;;;;;;6.75;4.82;;;;;;;;;;5072772;28;20055;-70
2023/10/10 02:21:47;;;;;;;8.30;4.90;;;;;;;;;;5073284;28;20562;-70
2023/10/10 02:26:55;;;;;;;8.18;5.22;;;;;;;;;;5070050;28;20079;-70
2023/10/10 02:29:34;;;;;;;9.23;4.93;;;;;;;;;;5072855;28;20068;-70
2023/10/10 02:32:13;;;;;;;9.20;4.97;;;;;;;;;;5067715;28;20032;-70
2023/10/10 02:34:56;;;;;;;7.18;4.72;;;;;;;;;;5071412;28;20049;-70
2023/10/10 02:40:13;;;;;;;7.85;5.43;;;;;;;;;;5068266;28;20098;-70
2023/10/10 02:42:38;;;;;;;8.93;5.13;;;;;;;;;;5055653;28;20525;-70
2023/10/10 02:45:06;;;;;;;6.68;4.85;;;;;;;;;;5055870;28;20040;-70
2023/10/10 02:47:32;;;;;;;10.55;5.53;;;;;;;;;;5065209;28;20048;-70
2023/10/10 02:50:12;;;;;;;11.00;5.57;;;;;;;;;;5074496;28;20105;-70
2023/10/10 02:52:45;;;;;;;11.18;5.82;;;;;;;;;;5072440;28;20075;-70
2023/10/10 02:55:16;;;;;;;11.57;6.00;;;;;;;;;;5071029;28;20494;-70
2023/10/10 02:57:42;;;;;;;7.63;5.82;;;;;;;;;;5072924;28;20077;-70
2023/10/10 03:02:56;;;;;;;8.85;5.68;;;;;;;;;;5070398;28;20094;-70
2023/10/10 03:05:39;;;;;;;10.20;6.35;;;;;;;;;;5069626;28;20041;-70
2023/10/10 03:08:15;;;;;;;10.25;6.20;;;;;;;;;;5070201;28;20048;-70
2023/10/10 03:10:45;;;;;;;9.13;5.97;;;;;;;;;;5073582;28;20173;-70
2023/10/10 03:16:10;;;;;;;10.77;6.15;;;;;;;;;;5065600;28;20051;-70
2023/10/10 03:18:36;;;;;;;10.97;6.33;;;;;;;;;;5092028;22;20506;-73
2023/10/10 03:23:54;;;;;;;11.07;6.05;;;;;;;;;;5068108;28;20060;-73
2023/10/10 03:26:34;;;;;;;10.90;6.18;;;;;;;;;;5092368;28;20044;-73
2023/10/10 03:29:05;;;;;;;10.30;6.78;;;;;;;;;;5063026;28;20048;-73
2023/10/10 03:31:42;;;;;;;10.80;6.75;;;;;;;;;;5072133;28;20055;-73
2023/10/10 03:37:04;;;;;;;11.93;6.88;;;;;;;;;;5071008;28;20110;-73
2023/10/10 03:39:49;;;;;;;11.25;6.38;;;;;;;;;;5069198;28;20409;-73
2023/10/10 05:23:53;;;;;;;21.25;13.02;;;;;;;;;;5060899;28;20045;-74
2023/10/10 05:26:20;;;;;;;22.95;12.82;;;;;;;;;;5055743;28;20049;-74
2023/10/10 05:28:48;;;;;;;21.58;12.27;;;;;;;;;;5060309;28;20041;-74
2023/10/10 05:31:21;;;;;;;20.92;12.63;;;;;;;;;;5059495;28;20044;-74
2023/10/10 05:33:47;;;;;;;20.85;11.90;;;;;;;;;;5064263;28;20040;-74
2023/10/10 05:36:14;;;;;;;20.10;11.98;;;;;;;;;;5059408;28;20557;-73
2023/10/10 05:38:41;;;;;;;22.25;12.68;;;;;;;;;;5066697;28;20040;-74
2023/10/10 05:41:07;;;;;;;19.60;12.32;;;;;;;;;;5063486;28;20090;-73
2023/10/10 05:43:35;;;;;;;21.08;12.40;;;;;;;;;;5070777;28;20040;-73
2023/10/10 05:46:03;;;;;;;22.33;11.93;;;;;;;;;;5054839;28;20051;-73
2023/10/10 05:48:31;;;;;;;19.77;11.95;;;;;;;;;;5059554;28;20043;-73
2023/10/10 05:50:57;;;;;;;21.95;12.73;;;;;;;;;;5055067;28;20053;-73
2023/10/10 05:53:24;;;;;;;19.45;12.60;;;;;;;;;;5063038;28;20101;-73
2023/10/10 05:55:53;;;;;;;22.92;12.95;;;;;;;;;;5050044;28;20052;-73
2023/10/10 05:58:20;;;;;;;19.60;12.90;;;;;;;;;;5065350;28;20077;-73
2023/10/10 06:00:48;;;;;;;25.60;14.27;;;;;;;;;;5061836;28;20048;-73
2023/10/10 06:03:16;;;;;;;22.58;12.80;;;;;;;;;;5064886;28;20041;-73
2023/10/10 06:05:46;;;;;;;23.27;14.13;;;;;;;;;;5066564;28;20040;-73
2023/10/10 06:08:15;;;;;;;22.08;14.05;;;;;;;;;;5069111;28;20398;-72
2023/10/10 06:10:41;;;;;;;21.30;13.40;;;;;;;;;;5066504;28;20044;-72
2023/10/10 06:13:07;;;;;;;20.80;13.55;;;;;;;;;;5065712;28;20402;-72
2023/10/10 06:15:34;;;;;;;22.33;13.43;;;;;;;;;;5064745;28;20036;-72
2023/10/10 06:18:18;;;;;;;23.33;13.43;;;;;;;;;;5051420;28;20036;-72
2023/10/10 06:20:47;;;;;;;22.65;14.27;;;;;;;;;;5065986;28;20044;-73
2023/10/10 06:23:18;;;;;;;27.15;14.68;;;;;;;;;;5070579;28;20040;-73
2023/10/10 06:25:45;;;;;;;27.83;15.35;;;;;;;;;;5066731;28;20491;-73
2023/10/10 06:28:25;;;;;;;23.95;14.23;;;;;;;;;;5064244;28;20111;-73
2023/10/10 06:30:55;;;;;;;23.88;14.80;;;;;;;;;;5063862;28;20044;-72
2023/10/10 06:33:27;;;;;;;24.88;14.60;;;;;;;;;;5068737;28;20045;-73
2023/10/10 06:36:01;;;;;;;23.05;15.18;;;;;;;;;;5044150;28;20665;-73
2023/10/10 06:38:27;;;;;;;26.60;15.45;;;;;;;;;;5069244;28;20040;-73
2023/10/10 06:40:53;;;;;;;28.10;15.93;;;;;;;;;;5070495;28;20042;-73
2023/10/10 06:43:19;;;;;;;22.45;14.60;;;;;;;;;;5069753;28;20119;-73
2023/10/10 06:45:52;;;;;;;26.60;15.55;;;;;;;;;;5065624;28;20033;-73
2023/10/10 06:48:21;;;;;;;31.85;17.55;;;;;;;;;;5067493;28;20067;-73
2023/10/10 06:50:49;;;;;;;27.77;16.25;;;;;;;;;;5073570;28;20120;-73
2023/10/10 06:53:28;;;;;;;27.45;16.27;;;;;;;;;;5067841;28;20044;-73
2023/10/10 06:55:54;;;;;;;26.25;17.08;;;;;;;;;;5069494;28;20502;-73
2023/10/10 06:58:20;;;;;;;29.60;17.13;;;;;;;;;;5073493;28;20657;-73
2023/10/10 07:00:47;;;;;;;31.58;18.27;;;;;;;;;;5074215;28;20115;-72
2023/10/10 07:03:18;;;;;;;33.28;17.90;;;;;;;;;;5073241;28;20379;-73
2023/10/10 07:05:45;;;;;;;31.55;19.13;;;;;;;;;;5073103;28;20044;-73
2023/10/10 07:08:19;;;;;;;28.25;18.17;;;;;;;;;;5073782;28;20059;-73
2023/10/10 07:10:45;;;;;;;32.58;19.08;;;;;;;;;;5073327;28;20564;-73
2023/10/10 07:13:18;;;;;;;31.38;17.98;;;;;;;;;;5073946;28;20135;-73
2023/10/10 07:15:51;;;;;;;30.20;17.65;;;;;;;;;;5073092;28;20137;-73
2023/10/10 07:18:22;;;;;;;30.25;17.10;;;;;;;;;;5073420;28;20047;-73
2023/10/10 07:23:42;;;;;;;29.50;17.30;;;;;;;;;;5054399;28;19939;-72
2023/10/10 07:26:19;;;;;;;32.83;18.83;;;;;;;;;;5068943;28;20049;-72
2023/10/10 07:28:48;;;;;;;39.05;21.02;;;;;;;;;;5072904;28;20120;-72
2023/10/10 07:31:17;;;;;;;46.33;24.52;;;;;;;;;;5073582;28;20052;-72
2023/10/10 07:33:43;;;;;;;40.60;23.65;;;;;;;;;;5073330;28;20040;-72
2023/10/10 07:36:13;;;;;;;41.80;23.80;;;;;;;;;;5073050;28;20040;-72
2023/10/10 07:38:39;;;;;;;46.70;26.38;;;;;;;;;;5072704;28;20044;-72
2023/10/10 07:41:05;;;;;;;51.03;27.73;;;;;;;;;;5073291;28;20486;-72
2023/10/10 07:43:34;;;;;;;47.20;26.27;;;;;;;;;;5072711;28;20071;-72
2023/10/10 07:46:22;;;;;;;50.17;27.50;;;;;;;;;;5072726;28;20047;-72
2023/10/10 07:48:53;;;;;;;50.28;27.38;;;;;;;;;;5064934;28;20044;-72
2023/10/10 07:51:28;;;;;;;54.08;28.50;;;;;;;;;;5072881;28;20489;-72
2023/10/10 07:54:02;;;;;;;54.90;29.65;;;;;;;;;;5066119;28;20046;-72
2023/10/10 07:56:31;;;;;;;53.05;28.67;;;;;;;;;;5072119;28;20044;-72
2023/10/10 07:58:57;;;;;;;51.47;28.23;;;;;;;;;;5072782;28;20044;-72
2023/10/10 08:01:23;;;;;;;57.08;29.50;;;;;;;;;;5071409;28;20044;-72
2023/10/10 08:03:49;;;;;;;58.40;30.38;;;;;;;;;;5065171;28;20380;-72
2023/10/10 08:06:22;;;;;;;57.88;30.10;;;;;;;;;;5056256;28;20056;-72
2023/10/10 08:08:49;;;;;;;63.55;31.60;;;;;;;;;;5064370;28;20123;-72
2023/10/10 08:11:25;;;;;;;57.83;30.23;;;;;;;;;;5072549;28;20041;-72
2023/10/10 08:13:51;;;;;;;62.42;31.88;;;;;;;;;;5072758;28;20103;-72
2023/10/10 08:16:22;;;;;;;64.38;31.65;;;;;;;;;;5072210;28;20068;-72
2023/10/10 08:21:14;;;;;;;76.32;34.88;;;;;;;;;;5072797;28;20047;-72
2023/10/10 08:23:47;;;;;;;79.25;35.05;;;;;;;;;;5072358;28;20036;-72
2023/10/10 08:26:28;;;;;;;75.22;35.90;;;;;;;;;;5071998;28;20036;-72
2023/10/10 08:28:55;;;;;;;82.57;36.45;;;;;;;;;;5064602;28;20048;-72
2023/10/10 08:31:22;;;;;;;79.22;35.22;;;;;;;;;;5072267;28;20133;-72
2023/10/10 08:33:49;;;;;;;72.78;34.78;;;;;;;;;;5072279;28;20044;-72
2023/10/10 08:36:23;;;;;;;65.78;31.42;;;;;;;;;;5071408;28;20323;-73
2023/10/10 08:38:53;;;;;;;76.05;36.03;;;;;;;;;;5063248;28;20561;-73
2023/10/10 08:41:22;;;;;;;83.68;37.75;;;;;;;;;;5072291;28;20051;-73
2023/10/10 08:43:53;;;;;;;83.97;36.60;;;;;;;;;;5073398;28;20052;-73
2023/10/10 08:46:21;;;;;;;81.13;35.83;;;;;;;;;;5072519;28;20040;-72
2023/10/10 08:48:48;;;;;;;80.13;34.97;;;;;;;;;;5071060;28;20048;-72
2023/10/10 08:51:14;;;;;;;79.70;36.60;;;;;;;;;;5071082;28;20125;-72
2023/10/10 08:53:40;;;;;;;76.18;36.15;;;;;;;;;;5063519;28;20086;-72
2023/10/10 08:56:06;;;;;;;75.43;36.15;;;;;;;;;;5071920;28;20433;-72
2023/10/10 08:58:33;;;;;;;77.55;36.05;;;;;;;;;;5071837;28;20045;-72
2023/10/10 09:01:05;;;;;;;80.50;37.25;;;;;;;;;;5069717;28;20519;-72
2023/10/10 09:03:34;;;;;;;79.32;37.22;;;;;;;;;;5071098;28;20040;-72
2023/10/10 09:06:13;;;;;;;78.63;38.30;;;;;;;;;;5069519;28;20414;-72
2023/10/10 09:08:43;;;;;;;73.82;37.38;;;;;;;;;;5069773;28;20043;-72
2023/10/10 09:11:11;;;;;;;74.03;37.43;;;;;;;;;;5068442;28;20048;-72
2023/10/10 09:13:59;;;;;;;72.30;35.45;;;;;;;;;;5070083;28;20044;-72
2023/10/10 09:16:40;;;;;;;75.47;37.83;;;;;;;;;;5070360;28;20063;-72
2023/10/10 09:19:10;;;;;;;66.93;37.58;;;;;;;;;;5102478;22;20674;-67
2023/10/10 09:21:55;;;;;;;67.90;37.97;;;;;;;;;;5119544;27;20035;-67
2023/10/10 09:24:28;;;;;;;66.90;35.88;;;;;;;;;;5113293;27;20137;-67
2023/10/10 09:26:59;;;;;;;70.32;36.83;;;;;;;;;;5104587;28;20052;-67
2023/10/10 09:29:41;;;;;;;66.97;36.72;;;;;;;;;;5093399;28;20049;-67
2023/10/10 09:32:08;;;;;;;69.30;36.60;;;;;;;;;;5110824;27;20047;-67
2023/10/10 09:34:41;;;;;;;63.05;37.15;;;;;;;;;;5111610;28;20045;-67
2023/10/10 09:37:14;;;;;;;68.05;37.80;;;;;;;;;;5112398;28;20039;-67
2023/10/10 09:39:42;;;;;;;65.47;34.95;;;;;;;;;;5111468;28;20496;-68
2023/10/10 09:47:41;;;;;;;59.97;34.58;;;;;;;;;;5111949;28;20124;-68
2023/10/10 09:52:57;;;;;;;60.28;33.47;;;;;;;;;;5111546;28;20149;-67
2023/10/10 09:55:39;;;;;;;60.10;35.50;;;;;;;;;;5110758;28;20047;-67
2023/10/10 10:00:45;;;;;;;59.50;33.53;;;;;;;;;;5111513;28;20039;-67
2023/10/10 10:03:31;;;;;;;62.40;33.17;;;;;;;;;;5111587;28;20071;-67
2023/10/10 10:06:02;;;;;;;59.45;33.50;;;;;;;;;;5111917;28;20277;-67
2023/10/10 10:08:46;;;;;;;61.08;34.38;;;;;;;;;;5110581;28;20054;-67
2023/10/10 10:11:19;;;;;;;55.22;32.47;;;;;;;;;;5111804;28;20409;-67
2023/10/10 10:14:17;;;;;;;59.88;32.65;;;;;;;;;;5106543;28;20518;-67
2023/10/10 10:16:54;;;;;;;54.78;32.28;;;;;;;;;;5103667;28;20043;-67
2023/10/10 10:19:27;;;;;;;54.28;32.35;;;;;;;;;;5109407;28;20036;-67
2023/10/10 10:22:08;;;;;;;52.72;31.63;;;;;;;;;;5110821;28;20075;-67
2023/10/10 10:25:21;;;;;;;55.28;31.35;;;;;;;;;;5113266;28;20404;-67
2023/10/10 10:27:49;;;;;;;56.53;31.17;;;;;;;;;;5112793;27;20031;-67
2023/10/10 10:32:46;;;;;;;52.78;31.65;;;;;;;;;;5115006;28;20052;-67
2023/10/10 10:35:19;;;;;;;53.65;30.00;;;;;;;;;;5114676;28;20163;-67
2023/10/10 10:37:54;;;;;;;56.08;30.73;;;;;;;;;;5120067;27;20066;-67
2023/10/10 10:40:42;;;;;;;46.10;27.83;;;;;;;;;;5114613;28;20047;-67
2023/10/10 10:43:14;;;;;;;50.72;29.33;;;;;;;;;;5111827;28;20079;-67
2023/10/10 10:45:51;;;;;;;48.78;29.20;;;;;;;;;;5115247;28;20112;-67
2023/10/10 10:48:30;;;;;;;51.13;29.83;;;;;;;;;;5110876;28;20047;-67
2023/10/10 10:51:04;;;;;;;46.00;27.83;;;;;;;;;;5107516;28;20052;-67
2023/10/10 10:53:40;;;;;;;43.28;25.67;;;;;;;;;;5114704;28;20039;-67
2023/10/10 10:56:37;;;;;;;42.22;23.35;;;;;;;;;;5111946;28;20043;-67
2023/10/10 11:01:27;;;;;;;47.92;26.63;;;;;;;;;;5115045;28;20048;-67
2023/10/10 11:03:53;;;;;;;44.92;25.92;;;;;;;;;;5114208;28;20081;-67
2023/10/10 11:06:20;;;;;;;38.35;24.95;;;;;;;;;;5114170;28;20034;-67
2023/10/10 11:14:09;;;;;;;41.92;22.67;;;;;;;;;;5114568;28;20442;-67
2023/10/10 11:16:38;;;;;;;46.33;27.05;;;;;;;;;;5114086;28;20031;-67
2023/10/10 11:21:54;;;;;;;45.00;26.63;;;;;;;;;;5113253;28;20198;-67
2023/10/10 11:24:24;;;;;;;40.58;25.48;;;;;;;;;;5114432;28;20035;-67
2023/10/10 11:27:14;;;;;;;42.10;23.10;;;;;;;;;;5106736;28;20039;-67
2023/10/10 11:29:44;;;;;;;38.58;21.50;;;;;;;;;;5115366;27;20442;-67
2023/10/10 11:32:13;;;;;;;;;;;;;;;;;;5114250;28;20046;-67
2023/10/10 11:34:44;;;;;;;39.63;22.83;;;;;;;;;;5112368;28;19998;-67
2023/10/10 11:37:23;;;;;;;39.45;22.30;;;;;;;;;;5115030;27;20045;-67
2023/10/10 11:39:58;;;;;;;39.63;21.38;;;;;;;;;;5112202;28;20447;-67
2023/10/10 11:42:26;;;;;;;38.38;22.02;;;;;;;;;;5114153;28;20402;-67
2023/10/10 11:44:54;;;;;;;36.55;21.30;;;;;;;;;;5113607;28;20036;-67
2023/10/10 11:47:26;;;;;;;36.70;21.83;;;;;;;;;;5115510;27;20031;-67
2023/10/10 11:50:02;;;;;;;37.88;21.20;;;;;;;;;;5113148;28;20023;-67
2023/10/10 11:52:50;;;;;;;35.70;21.25;;;;;;;;;;5111741;28;20105;-67
2023/10/10 11:55:20;;;;;;;36.30;19.42;;;;;;;;;;5113298;28;20044;-67
2023/10/10 11:57:48;;;;;;;35.03;20.70;;;;;;;;;;5115582;27;20485;-67
2023/10/10 12:00:21;;;;;;;36.35;21.23;;;;;;;;;;5113565;28;20432;-67
2023/10/10 12:02:48;;;;;;;38.53;21.30;;;;;;;;;;5113265;28;20040;-67
2023/10/10 12:08:07;;;;;;;33.33;19.40;;;;;;;;;;5110929;27;20039;-67
2023/10/10 12:10:52;;;;;;;32.60;19.30;;;;;;;;;;5113335;28;20039;-67
2023/10/10 12:15:55;;;;;;;34.53;19.58;;;;;;;;;;5111385;28;20043;-67
2023/10/10 12:18:21;;;;;;;31.42;17.95;;;;;;;;;;5114275;27;20048;-67
2023/10/10 12:21:03;;;;;;;33.28;18.27;;;;;;;;;;5113342;27;20047;-67
2023/10/10 12:23:31;;;;;;;30.60;17.77;;;;;;;;;;5111143;28;20069;-67
2023/10/10 12:25:59;;;;;;;29.08;16.50;;;;;;;;;;5110784;28;20035;-68
2023/10/10 12:28:25;;;;;;;25.40;15.88;;;;;;;;;;5110546;27;20110;-68
2023/10/10 12:30:51;;;;;;;25.38;15.18;;;;;;;;;;5093774;28;20047;-68
2023/10/10 12:33:19;;;;;;;23.70;14.30;;;;;;;;;;5113617;28;20039;-68
2023/10/10 12:35:48;;;;;;;24.08;14.63;;;;;;;;;;5112479;28;20071;-68
2023/10/10 12:38:15;;;;;;;27.05;15.07;;;;;;;;;;5111938;27;20051;-68
2023/10/10 12:40:43;;;;;;;30.25;15.00;;;;;;;;;;5112797;28;20039;-68
2023/10/10 12:43:11;;;;;;;24.40;13.77;;;;;;;;;;5113403;28;20493;-68
2023/10/10 12:45:37;;;;;;;24.10;14.93;;;;;;;;;;5092852;28;20366;-68
2023/10/10 12:48:13;;;;;;;26.20;15.07;;;;;;;;;;5093470;28;20071;-68
2023/10/10 12:50:39;;;;;;;28.13;15.52;;;;;;;;;;5090027;28;20120;-68
2023/10/10 12:56:18;;;;;;;27.73;15.27;;;;;;;;;;5111927;27;20178;-68
2023/10/10 12:58:51;;;;;;;27.45;15.52;;;;;;;;;;5110852;28;20119;-69
2023/10/10 13:01:23;;;;;;;27.52;15.52;;;;;;;;;;5110906;28;20043;-69
2023/10/10 13:03:49;;;;;;;27.67;15.20;;;;;;;;;;5113289;27;20465;-69
2023/10/10 13:06:16;;;;;;;29.08;16.55;;;;;;;;;;5111695;28;20044;-68
2023/10/10 13:08:50;;;;;;;27.63;15.10;;;;;;;;;;5095843;28;20110;-68
2023/10/10 13:11:18;;;;;;;25.75;15.02;;;;;;;;;;5086300;28;20048;-68
2023/10/10 13:13:45;;;;;;;26.40;15.27;;;;;;;;;;5110229;27;20413;-68
2023/10/10 13:19:06;;;;;;;26.17;15.73;;;;;;;;;;5113265;27;20043;-69
2023/10/10 13:21:39;;;;;;;30.90;16.20;;;;;;;;;;5108248;28;20047;-69
2023/10/10 13:24:10;;;;;;;25.23;15.48;;;;;;;;;;5107584;27;20050;-69
2023/10/10 13:26:39;;;;;;;22.85;15.07;;;;;;;;;;5103663;27;20039;-69
2023/10/10 13:29:05;;;;;;;28.33;16.73;;;;;;;;;;5089321;28;20039;-69
2023/10/10 13:31:32;;;;;;;24.80;15.77;;;;;;;;;;5110418;27;20074;-68
2023/10/10 13:33:58;;;;;;;26.67;15.60;;;;;;;;;;5111951;28;20046;-68
2023/10/10 13:36:24;;;;;;;25.50;14.95;;;;;;;;;;5108116;28;20032;-69
2023/10/10 13:38:51;;;;;;;31.52;16.10;;;;;;;;;;5104117;28;20386;-69
2023/10/10 13:41:18;;;;;;;25.38;15.98;;;;;;;;;;5080444;28;20122;-69
2023/10/10 13:43:47;;;;;;;26.45;16.40;;;;;;;;;;5104238;27;20055;-69
2023/10/10 13:46:14;;;;;;;25.88;16.10;;;;;;;;;;5099090;27;20039;-69
2023/10/10 13:48:40;;;;;;;28.92;16.23;;;;;;;;;;5100025;28;20039;-69
2023/10/10 13:51:07;;;;;;;26.73;16.58;;;;;;;;;;5096895;28;20123;-69
2023/10/10 13:53:33;;;;;;;26.23;14.90;;;;;;;;;;5083168;28;20058;-69
2023/10/10 13:56:06;;;;;;;27.48;15.65;;;;;;;;;;5079531;28;20127;-69
2023/10/10 13:58:32;;;;;;;23.98;15.30;;;;;;;;;;5081820;28;20058;-69
2023/10/10 14:01:14;;;;;;;24.30;15.65;;;;;;;;;;5078521;28;20053;-69
2023/10/10 14:03:47;;;;;;;24.67;14.52;;;;;;;;;;5095607;28;20040;-68
2023/10/10 14:06:14;;;;;;;28.13;15.13;;;;;;;;;;5097199;28;20389;-68
2023/10/10 14:08:44;;;;;;;26.02;14.73;;;;;;;;;;5088840;28;20046;-68
2023/10/10 14:11:11;;;;;;;21.88;13.88;;;;;;;;;;5100884;28;20050;-68
2023/10/10 14:13:37;;;;;;;24.73;14.85;;;;;;;;;;5101525;28;20070;-69
2023/10/10 14:16:05;;;;;;;25.23;14.43;;;;;;;;;;5116045;28;20050;-69
2023/10/10 14:18:32;;;;;;;23.48;14.63;;;;;;;;;;5107238;28;20040;-69
2023/10/10 14:21:01;;;;;;;21.90;13.95;;;;;;;;;;5108643;28;20040;-69
2023/10/10 14:23:29;;;;;;;23.55;13.25;;;;;;;;;;5113187;28;20043;-69
2023/10/10 14:26:03;;;;;;;21.77;14.07;;;;;;;;;;5106329;28;20490;-69
2023/10/10 14:28:29;;;;;;;24.77;14.90;;;;;;;;;;5109778;28;20415;-69
2023/10/10 14:30:57;;;;;;;28.70;15.20;;;;;;;;;;5090334;28;20043;-69
2023/10/10 14:33:25;;;;;;;20.40;13.07;;;;;;;;;;5111490;28;20040;-69
2023/10/10 14:35:52;;;;;;;20.90;13.32;;;;;;;;;;5107917;28;20579;-69
2023/10/10 14:38:18;;;;;;;22.55;13.88;;;;;;;;;;5112683;28;20109;-69
2023/10/10 14:40:44;;;;;;;21.85;13.80;;;;;;;;;;5110166;28;20050;-69
2023/10/10 14:43:10;;;;;;;21.48;13.27;;;;;;;;;;5110041;28;20040;-69
2023/10/10 14:45:43;;;;;;;21.15;13.60;;;;;;;;;;5092082;28;20044;-69
2023/10/10 14:48:18;;;;;;;23.35;13.82;;;;;;;;;;5101541;28;20085;-68
2023/10/10 14:50:44;;;;;;;20.02;13.23;;;;;;;;;;5114032;28;20182;-70
2023/10/10 14:53:10;;;;;;;21.40;13.68;;;;;;;;;;5108845;28;20126;-69
2023/10/10 14:55:39;;;;;;;19.38;12.82;;;;;;;;;;5112556;28;20035;-69
2023/10/10 14:58:09;;;;;;;23.67;12.90;;;;;;;;;;5110779;28;20036;-69
2023/10/10 15:00:44;;;;;;;19.70;12.50;;;;;;;;;;5108153;28;20118;-69
2023/10/10 15:03:15;;;;;;;21.10;12.48;;;;;;;;;;5102881;28;20039;-68
2023/10/10 15:05:50;;;;;;;21.50;12.90;;;;;;;;;;5087771;28;20052;-68
2023/10/10 15:08:17;;;;;;;19.25;12.05;;;;;;;;;;5106982;28;20039;-68
2023/10/10 15:10:43;;;;;;;20.55;12.55;;;;;;;;;;5109412;28;20050;-68
2023/10/10 15:13:11;;;;;;;18.88;12.23;;;;;;;;;;5107975;28;20028;-68
2023/10/10 15:15:37;;;;;;;20.75;13.32;;;;;;;;;;5109456;27;20067;-67
2023/10/10 15:20:34;;;;;;;;;;;;;;;;;;5073995;28;20052;-71
2023/10/10 15:23:00;;;;;;;18.40;12.82;;;;;;;;;;5067747;28;20298;-71
2023/10/10 15:25:26;;;;;;;19.75;13.02;;;;;;;;;;5059498;28;20048;-71
2023/10/10 15:27:54;;;;;;;22.83;12.70;;;;;;;;;;5088099;28;20040;-71
2023/10/10 15:30:20;;;;;;;24.00;13.10;;;;;;;;;;5093648;28;20040;-71
2023/10/10 15:32:46;;;;;;;20.20;12.80;;;;;;;;;;5090242;28;20032;-71
2023/10/10 15:35:19;;;;;;;20.33;12.82;;;;;;;;;;5094158;28;20142;-71
2023/10/10 15:37:45;;;;;;;21.30;13.07;;;;;;;;;;5092679;28;20032;-72
2023/10/10 15:40:20;;;;;;;20.50;12.93;;;;;;;;;;5093875;28;20379;-71
2023/10/10 15:42:51;;;;;;;22.83;13.48;;;;;;;;;;5092229;28;20036;-71
2023/10/10 15:45:22;;;;;;;20.48;12.45;;;;;;;;;;5071963;28;20082;-71
2023/10/10 15:47:49;;;;;;;21.52;13.38;;;;;;;;;;5091523;28;20098;-71
2023/10/10 15:50:17;;;;;;;23.63;14.02;;;;;;;;;;5092051;28;20043;-71
2023/10/10 15:52:48;;;;;;;30.73;16.35;;;;;;;;;;5085762;28;20033;-72
2023/10/10 15:55:15;;;;;;;25.67;15.10;;;;;;;;;;5088776;28;20486;-72
2023/10/10 15:57:41;;;;;;;24.73;14.27;;;;;;;;;;5091778;28;20161;-71
2023/10/10 16:00:14;;;;;;;62.28;37.45;;;;;;;;;;5093463;28;20107;-71
2023/10/10 16:02:40;;;;;;;24.40;14.70;;;;;;;;;;5093283;28;20040;-71
2023/10/10 16:05:06;;;;;;;26.42;14.77;;;;;;;;;;5069750;28;20048;-72
2023/10/10 16:07:32;;;;;;;25.02;15.35;;;;;;;;;;5089370;28;20036;-72
2023/10/10 16:09:58;;;;;;;23.45;14.68;;;;;;;;;;5091108;28;20038;-72
2023/10/10 16:12:24;;;;;;;25.13;14.93;;;;;;;;;;5086773;28;20408;-72
2023/10/10 16:14:50;;;;;;;24.38;14.30;;;;;;;;;;5090068;28;20062;-72
2023/10/10 16:17:16;;;;;;;23.73;14.50;;;;;;;;;;5090575;28;20401;-72
2023/10/10 16:19:43;;;;;;;26.13;15.93;;;;;;;;;;5091769;28;20036;-72
2023/10/10 16:22:13;;;;;;;28.02;15.52;;;;;;;;;;5091603;28;20044;-72
2023/10/10 16:24:39;;;;;;;23.23;14.30;;;;;;;;;;5094632;28;20035;-72
2023/10/10 16:27:08;;;;;;;22.23;14.30;;;;;;;;;;5092571;28;20075;-72
2023/10/10 16:29:34;;;;;;;24.73;14.18;;;;;;;;;;5090463;28;20050;-72
2023/10/10 16:32:07;;;;;;;21.30;14.35;;;;;;;;;;5091227;28;20040;-72
2023/10/10 16:34:34;;;;;;;22.13;13.90;;;;;;;;;;5089107;28;20401;-72
2023/10/10 16:37:00;;;;;;;26.85;13.90;;;;;;;;;;5092285;28;20490;-71
2023/10/10 16:39:26;;;;;;;26.63;14.55;;;;;;;;;;5067605;28;20036;-73
2023/10/10 16:41:52;;;;;;;23.40;14.18;;;;;;;;;;5091753;28;20046;-73
2023/10/10 16:44:20;;;;;;;21.77;13.15;;;;;;;;;;5090360;28;20072;-73
2023/10/10 16:46:47;;;;;;;22.02;13.90;;;;;;;;;;5089522;28;20050;-73
2023/10/10 16:49:14;;;;;;;21.88;14.50;;;;;;;;;;5075004;28;20870;-73
2023/10/10 16:51:40;;;;;;;25.77;14.30;;;;;;;;;;5087732;28;20089;-73
2023/10/10 16:54:06;;;;;;;24.13;14.15;;;;;;;;;;5087329;28;20509;-73
2023/10/10 16:56:34;;;;;;;28.98;14.30;;;;;;;;;;5089134;28;20067;-73
2023/10/10 16:59:00;;;;;;;22.25;14.05;;;;;;;;;;5091194;28;20066;-73
2023/10/10 17:01:28;;;;;;;26.25;14.32;;;;;;;;;;5090602;28;20486;-73
2023/10/10 17:03:54;;;;;;;27.98;14.27;;;;;;;;;;5088397;28;20044;-73
2023/10/10 17:06:25;;;;;;;23.17;13.38;;;;;;;;;;5088741;28;20085;-73
2023/10/10 17:08:59;;;;;;;;;;;;;;;;;;5076318;28;20059;-73
2023/10/10 17:11:25;;;;;;;25.23;14.23;;;;;;;;;;5090358;28;19988;-73
2023/10/10 17:13:53;;;;;;;20.85;13.57;;;;;;;;;;5067742;28;20036;-73
2023/10/10 17:16:29;;;;;;;24.52;13.73;;;;;;;;;;5091132;28;20035;-73
2023/10/10 17:18:56;;;;;;;23.05;13.82;;;;;;;;;;5070095;28;20032;-72
2023/10/10 17:21:22;;;;;;;21.02;13.95;;;;;;;;;;5068340;28;20413;-73
2023/10/10 17:23:49;;;;;;;22.98;14.15;;;;;;;;;;5089665;28;20038;-73
2023/10/10 17:26:19;;;;;;;22.35;13.05;;;;;;;;;;5090147;28;20127;-73
2023/10/10 17:28:45;;;;;;;24.40;14.30;;;;;;;;;;5088984;28;20048;-73